createdAt,value
2022-10-11T00:02:20.692Z,9.36
2022-10-11T00:05:23.600Z,9.53
2022-10-11T00:08:26.209Z,9.43
2022-10-11T00:11:28.600Z,9.63
2022-10-11T00:14:31.029Z,9.39
2022-10-11T00:17:33.642Z,9.31
2022-10-11T00:20:36.073Z,9.34
2022-10-11T00:23:38.995Z,9.58
2022-10-11T00:26:46.383Z,9.76
2022-10-11T00:29:49.417Z,9.49
2022-10-11T00:32:51.864Z,9.34
2022-10-11T00:35:54.340Z,9.33
2022-10-11T00:38:56.730Z,9.32
2022-10-11T00:41:59.146Z,9.49
2022-10-11T00:45:26.330Z,9.58
2022-10-11T00:48:41.061Z,9.44
2022-10-11T00:51:47.543Z,9.58
2022-10-11T00:54:50.269Z,9.56
2022-10-11T00:57:52.993Z,9.47
2022-10-11T01:00:55.477Z,9.41
2022-10-11T01:03:58.314Z,9.58
2022-10-11T01:07:01.927Z,9.56
2022-10-11T01:10:04.651Z,9.64
2022-10-11T01:13:20.757Z,9.74
2022-10-11T01:16:32.162Z,9.66
2022-10-11T01:20:08.350Z,9.86
2022-10-11T01:23:32.547Z,9.85
2022-10-11T01:26:43.686Z,9.79
2022-10-11T01:30:05.820Z,9.85
2022-10-11T01:33:27.828Z,9.66
2022-10-11T01:36:59.449Z,9.86
2022-10-11T01:40:17.712Z,9.66
2022-10-11T01:43:20.887Z,9.68
2022-10-11T01:46:23.930Z,9.83
2022-10-11T01:49:26.311Z,10.14
2022-10-11T01:52:31.618Z,10.24
2022-10-11T01:55:48.872Z,9.98
2022-10-11T01:59:26.039Z,9.88
2022-10-11T02:02:36.984Z,9.86
2022-10-11T02:05:49.203Z,9.74
2022-10-11T02:09:08.955Z,9.86
2022-10-11T02:12:12.970Z,9.86
2022-10-11T02:15:16.821Z,9.90
2022-10-11T02:18:23.057Z,10.01
2022-10-11T02:21:25.909Z,9.92
2022-10-11T02:24:31.381Z,9.84
2022-10-11T02:27:36.381Z,9.85
2022-10-11T02:30:41.101Z,9.79
2022-10-11T02:34:05.090Z,9.94
2022-10-11T02:37:16.739Z,9.82
2022-10-11T02:40:25.916Z,9.77
2022-10-11T02:43:28.206Z,9.63
2022-10-11T02:46:30.953Z,9.53
2022-10-11T02:49:35.783Z,9.50
2022-10-11T02:52:38.176Z,9.41
2022-10-11T02:55:40.644Z,9.59
2022-10-11T02:58:43.000Z,9.80
2022-10-11T03:01:45.518Z,9.39
2022-10-11T03:04:47.935Z,9.02
2022-10-11T03:07:50.339Z,8.96
2022-10-11T03:10:52.968Z,8.86
2022-10-11T03:13:55.368Z,8.88
2022-10-11T03:17:12.089Z,8.84
2022-10-11T03:20:20.350Z,8.92
2022-10-11T03:23:22.665Z,8.88
2022-10-11T03:26:25.211Z,8.76
2022-10-11T03:29:27.549Z,8.73
2022-10-11T03:32:29.900Z,8.97
2022-10-11T03:35:32.269Z,9.05
2022-10-11T03:38:34.610Z,8.95
2022-10-11T03:41:36.908Z,9.11
2022-10-11T03:44:39.414Z,9.04
2022-10-11T03:47:42.117Z,9.02
2022-10-11T03:50:44.567Z,9.06
2022-10-11T03:53:46.880Z,9.05
2022-10-11T03:56:49.252Z,9.15
2022-10-11T03:59:51.708Z,8.98
2022-10-11T04:02:54.424Z,9.10
2022-10-11T04:05:56.747Z,9.15
2022-10-11T04:08:59.354Z,9.19
2022-10-11T04:12:01.725Z,8.98
2022-10-11T04:15:05.710Z,8.97
2022-10-11T04:18:08.527Z,8.80
2022-10-11T04:21:11.061Z,8.82
2022-10-11T04:24:13.404Z,8.85
2022-10-11T04:27:15.770Z,8.77
2022-10-11T04:30:18.331Z,8.93
2022-10-11T04:33:20.826Z,8.85
2022-10-11T04:36:24.103Z,8.78
2022-10-11T04:39:26.896Z,8.93
2022-10-11T04:42:29.262Z,9.02
2022-10-11T04:45:32.150Z,8.87
2022-10-11T04:48:34.918Z,9.03
2022-10-11T04:51:37.341Z,9.20
2022-10-11T04:54:39.772Z,9.24
2022-10-11T04:57:42.583Z,9.12
2022-10-11T05:00:44.984Z,9.21
2022-10-11T05:03:48.612Z,9.12
2022-10-11T05:06:51.232Z,9.14
2022-10-11T05:09:54.636Z,9.07
2022-10-11T05:12:57.209Z,9.01
2022-10-11T05:15:59.808Z,8.90
2022-10-11T05:19:02.304Z,8.74
2022-10-11T05:22:04.736Z,8.76
2022-10-11T05:25:07.385Z,8.81
2022-10-11T05:28:09.776Z,9.00
2022-10-11T05:31:12.279Z,9.14
2022-10-11T05:34:14.680Z,9.04
2022-10-11T05:37:17.141Z,9.33
2022-10-11T05:40:20.124Z,9.31
2022-10-11T05:43:22.464Z,9.41
2022-10-11T05:46:24.838Z,9.14
2022-10-11T05:49:27.264Z,9.38
2022-10-11T05:52:30.760Z,9.64
2022-10-11T05:55:40.444Z,9.66
2022-10-11T05:58:42.841Z,9.62
2022-10-11T06:01:45.281Z,9.83
2022-10-11T06:04:47.853Z,9.79
2022-10-11T06:07:50.220Z,9.73
2022-10-11T06:10:52.550Z,9.94
2022-10-11T06:13:56.031Z,10.20
2022-10-11T06:16:58.366Z,10.50
2022-10-11T06:20:00.739Z,10.73
2022-10-11T06:23:03.181Z,10.67
2022-10-11T06:26:08.183Z,10.93
2022-10-11T06:29:11.476Z,10.96
2022-10-11T06:32:13.893Z,10.43
2022-10-11T06:35:16.411Z,10.67
2022-10-11T06:38:19.202Z,10.93
2022-10-11T06:41:28.544Z,11.16
2022-10-11T06:44:35.506Z,11.38
2022-10-11T06:47:38.634Z,11.50
2022-10-11T06:50:59.136Z,11.57
2022-10-11T06:54:02.632Z,11.64
2022-10-11T06:57:05.044Z,11.78
2022-10-11T07:00:12.461Z,11.94
2022-10-11T07:03:15.208Z,12.11
2022-10-11T07:06:22.181Z,12.24
2022-10-11T07:09:24.645Z,12.49
2022-10-11T07:12:27.107Z,12.89
2022-10-11T07:15:29.565Z,12.64
2022-10-11T07:18:32.657Z,12.91
2022-10-11T07:21:35.658Z,12.92
2022-10-11T07:24:37.997Z,13.08
2022-10-11T07:27:40.641Z,13.39
2022-10-11T07:30:44.090Z,13.50
2022-10-11T07:33:46.491Z,13.62
2022-10-11T07:36:49.038Z,13.88
2022-10-11T07:39:51.469Z,13.92
2022-10-11T07:42:53.836Z,14.02
2022-10-11T07:45:57.071Z,13.91
2022-10-11T07:48:59.509Z,13.88
2022-10-11T07:52:01.918Z,13.52
2022-10-11T07:55:04.704Z,13.22
2022-10-11T07:58:11.408Z,13.22
2022-10-11T08:01:14.674Z,13.59
2022-10-11T08:04:17.307Z,13.85
2022-10-11T08:07:19.744Z,13.75
2022-10-11T08:10:22.875Z,13.58
2022-10-11T08:13:25.699Z,13.42
2022-10-11T08:16:28.292Z,13.76
2022-10-11T08:19:30.692Z,14.05
2022-10-11T08:22:35.228Z,14.62
2022-10-11T08:25:42.493Z,14.62
2022-10-11T08:28:45.052Z,14.38
2022-10-11T08:31:47.486Z,14.63
2022-10-11T08:35:22.866Z,14.63
2022-10-11T08:38:25.798Z,14.47
2022-10-11T08:41:51.275Z,14.62
2022-10-11T08:45:10.669Z,15.02
2022-10-11T08:48:16.610Z,15.19
2022-10-11T08:51:30.710Z,15.33
2022-10-11T08:54:56.361Z,15.84
2022-10-11T08:57:59.192Z,15.91
2022-10-11T09:01:03.048Z,15.75
2022-10-11T09:04:06.161Z,15.55
2022-10-11T09:07:39.832Z,15.39
2022-10-11T09:10:50.384Z,15.77
2022-10-11T09:13:58.758Z,16.08
2022-10-11T09:17:11.852Z,15.67
2022-10-11T09:20:35.592Z,15.95
2022-10-11T09:24:02.036Z,15.85
2022-10-11T09:27:38.104Z,15.72
2022-10-11T09:30:49.198Z,15.97
2022-10-11T09:33:52.218Z,16.15
2022-10-11T09:37:04.716Z,16.70
2022-10-11T09:40:19.203Z,17.06
2022-10-11T09:43:21.901Z,17.16
2022-10-11T09:46:34.642Z,17.59
2022-10-11T09:53:06.564Z,17.33
2022-10-11T09:56:09.684Z,17.26
2022-10-11T09:59:29.451Z,17.38
2022-10-11T10:02:49.325Z,17.44
2022-10-11T10:06:06.883Z,17.46
2022-10-11T10:09:30.270Z,17.51
2022-10-11T10:12:32.650Z,17.64
2022-10-11T10:15:36.557Z,17.40
2022-10-11T10:18:43.055Z,16.90
2022-10-11T10:21:47.625Z,17.15
2022-10-11T10:24:50.997Z,16.95
2022-10-11T10:27:58.605Z,16.97
2022-10-11T10:31:00.976Z,16.96
2022-10-11T10:34:16.069Z,16.98
2022-10-11T10:37:25.551Z,16.92
2022-10-11T10:40:40.610Z,17.19
2022-10-11T10:43:45.032Z,17.42
2022-10-11T10:46:56.385Z,17.78
2022-10-11T10:50:31.784Z,18.08
2022-10-11T10:54:02.824Z,17.75
2022-10-11T10:57:34.664Z,17.59
2022-10-11T11:00:42.424Z,17.95
2022-10-11T11:03:54.019Z,18.14
2022-10-11T11:07:08.459Z,18.25
2022-10-11T11:10:19.659Z,18.13
2022-10-11T11:13:37.122Z,18.39
2022-10-11T11:16:47.295Z,18.20
2022-10-11T11:19:55.726Z,18.04
2022-10-11T11:23:03.804Z,18.00
2022-10-11T11:26:25.870Z,17.81
2022-10-11T11:30:01.736Z,17.65
2022-10-11T11:33:31.111Z,17.53
2022-10-11T11:36:39.181Z,17.61
2022-10-11T11:39:49.152Z,17.43
2022-10-11T11:42:57.192Z,17.27
2022-10-11T11:46:06.567Z,17.32
2022-10-11T11:49:21.556Z,17.25
2022-10-11T11:52:33.879Z,17.15
2022-10-11T11:55:49.270Z,17.10
2022-10-11T11:58:59.545Z,17.15
2022-10-11T12:02:23.469Z,17.09
2022-10-11T12:05:29.481Z,17.00
2022-10-11T12:08:33.642Z,16.89
2022-10-11T12:11:43.199Z,17.03
2022-10-11T12:14:45.568Z,17.08
2022-10-11T12:17:57.176Z,17.15
2022-10-11T12:21:34.580Z,17.11
2022-10-11T12:24:58.973Z,17.27
2022-10-11T12:28:23.117Z,17.26
2022-10-11T12:31:31.480Z,17.35
2022-10-11T12:37:44.602Z,17.68
2022-10-11T12:40:48.725Z,17.78
2022-10-11T12:43:51.979Z,17.73
2022-10-11T12:46:54.312Z,17.69
2022-10-11T12:50:25.852Z,17.77
2022-10-11T12:54:14.693Z,17.97
2022-10-11T12:57:55.201Z,17.92
2022-10-11T13:00:57.957Z,18.00
2022-10-11T13:04:04.434Z,18.18
2022-10-11T13:07:13.745Z,18.09
2022-10-11T13:10:23.128Z,18.30
2022-10-11T13:13:41.878Z,18.52
2022-10-11T13:16:49.340Z,18.34
2022-10-11T13:20:22.621Z,18.00
2022-10-11T13:23:29.158Z,18.07
2022-10-11T13:26:31.930Z,18.15
2022-10-11T13:29:39.907Z,18.06
2022-10-11T13:32:42.575Z,17.57
2022-10-11T13:35:44.969Z,17.63
2022-10-11T13:38:54.079Z,17.46
2022-10-11T13:41:57.600Z,17.46
2022-10-11T13:45:00.413Z,17.47
2022-10-11T13:48:03.174Z,17.35
2022-10-11T13:51:29.074Z,17.74
2022-10-11T13:54:54.459Z,18.73
2022-10-11T13:57:58.443Z,19.68
2022-10-11T14:01:04.154Z,19.98
2022-10-11T14:04:09.457Z,20.02
2022-10-11T14:07:26.798Z,20.30
2022-10-11T14:10:29.525Z,20.60
2022-10-11T14:13:31.879Z,20.56
2022-10-11T14:16:34.288Z,19.74
2022-10-11T14:19:36.800Z,19.18
2022-10-11T14:22:39.167Z,18.57
2022-10-11T14:25:41.585Z,18.37
2022-10-11T14:28:43.981Z,18.10
2022-10-11T14:31:46.641Z,18.20
2022-10-11T14:34:49.703Z,18.95
2022-10-11T14:37:52.970Z,19.43
2022-10-11T14:40:55.294Z,19.81
2022-10-11T14:43:57.893Z,19.46
2022-10-11T14:47:01.298Z,19.25
2022-10-11T14:50:22.375Z,18.80
2022-10-11T14:53:25.076Z,18.59
2022-10-11T14:56:27.591Z,18.34
2022-10-11T14:59:36.513Z,17.67
2022-10-11T15:02:38.951Z,17.39
2022-10-11T15:05:41.310Z,16.94
2022-10-11T15:08:44.109Z,16.85
2022-10-11T15:11:48.008Z,16.58
2022-10-11T15:14:50.463Z,16.51
2022-10-11T15:17:55.238Z,16.34
2022-10-11T15:20:58.190Z,16.42
2022-10-11T15:24:01.027Z,16.24
2022-10-11T15:27:03.603Z,16.15
2022-10-11T15:30:38.489Z,16.08
2022-10-11T15:33:43.829Z,15.88
2022-10-11T15:36:46.250Z,15.74
2022-10-11T15:39:49.323Z,15.64
2022-10-11T15:42:53.699Z,15.55
2022-10-11T15:45:57.454Z,15.46
2022-10-11T15:49:04.497Z,15.25
2022-10-11T15:52:09.017Z,15.23
2022-10-11T15:55:11.421Z,15.09
2022-10-11T15:58:15.750Z,15.02
2022-10-11T16:01:19.873Z,14.96
2022-10-11T16:04:22.289Z,14.77
2022-10-11T16:07:24.645Z,14.36
2022-10-11T16:10:27.207Z,14.33
2022-10-11T16:13:29.653Z,14.23
2022-10-11T16:16:32.152Z,14.18
2022-10-11T16:19:34.505Z,14.09
2022-10-11T16:22:36.858Z,13.98
2022-10-11T16:25:40.079Z,13.86
2022-10-11T16:28:42.672Z,13.73
2022-10-11T16:31:45.202Z,13.72
2022-10-11T16:34:47.629Z,13.73
2022-10-11T16:37:50.252Z,13.60
2022-10-11T16:40:52.798Z,13.58
2022-10-11T16:43:55.726Z,13.30
2022-10-11T16:46:58.583Z,13.40
2022-10-11T16:50:01.058Z,13.50
2022-10-11T16:53:03.484Z,13.48
2022-10-11T16:56:07.500Z,13.45
2022-10-11T16:59:11.400Z,13.54
2022-10-11T17:02:19.215Z,13.48
2022-10-11T17:05:21.681Z,13.36
2022-10-11T17:08:24.028Z,13.28
2022-10-11T17:11:26.448Z,13.20
2022-10-11T17:14:29.469Z,12.99
2022-10-11T17:17:31.865Z,13.10
2022-10-11T17:20:34.354Z,12.97
2022-10-11T17:23:37.102Z,13.09
2022-10-11T17:26:39.474Z,13.09
2022-10-11T17:29:41.950Z,13.07
2022-10-11T17:32:44.303Z,13.22
2022-10-11T17:35:46.798Z,13.18
2022-10-11T17:38:50.526Z,13.31
2022-10-11T17:41:53.385Z,13.34
2022-10-11T17:44:55.845Z,13.26
2022-10-11T17:48:00.537Z,13.21
2022-10-11T17:51:10.745Z,13.34
2022-10-11T17:54:13.381Z,13.36
2022-10-11T17:57:16.020Z,13.41
2022-10-11T18:00:19.404Z,13.40
2022-10-11T18:03:21.840Z,13.32
2022-10-11T18:06:26.372Z,13.33
2022-10-11T18:09:29.245Z,13.40
2022-10-11T18:12:31.669Z,13.19
2022-10-11T18:15:34.054Z,13.31
2022-10-11T18:18:36.560Z,13.31
2022-10-11T18:21:39.319Z,13.30
2022-10-11T18:24:41.649Z,13.30
2022-10-11T18:27:44.046Z,13.30
2022-10-11T18:30:47.497Z,13.04
2022-10-11T18:33:51.077Z,13.09
2022-10-11T18:36:53.472Z,12.98
2022-10-11T18:39:56.095Z,12.88
2022-10-11T18:42:58.493Z,12.88
2022-10-11T18:46:11.884Z,12.81
2022-10-11T18:49:14.666Z,12.93
2022-10-11T18:52:17.203Z,12.94
2022-10-11T18:55:19.935Z,12.96
2022-10-11T18:58:22.278Z,13.05
2022-10-11T19:01:25.649Z,13.15
2022-10-11T19:04:28.545Z,13.08
2022-10-11T19:07:30.903Z,13.01
2022-10-11T19:10:34.236Z,12.86
2022-10-11T19:13:36.892Z,12.84
2022-10-11T19:16:45.307Z,12.63
2022-10-11T19:19:48.684Z,12.33
2022-10-11T19:22:51.133Z,12.19
2022-10-11T19:25:57.063Z,12.23
2022-10-11T19:29:00.464Z,12.20
2022-10-11T19:32:03.594Z,12.16
2022-10-11T19:35:06.662Z,12.07
2022-10-11T19:38:09.116Z,12.01
2022-10-11T19:41:12.981Z,11.81
2022-10-11T19:44:15.929Z,11.85
2022-10-11T19:47:18.477Z,12.05
2022-10-11T19:50:20.934Z,11.97
2022-10-11T19:53:23.303Z,12.02
2022-10-11T19:56:27.611Z,11.91
2022-10-11T19:59:30.131Z,11.83
2022-10-11T20:02:33.438Z,11.82
2022-10-11T20:05:37.731Z,11.65
2022-10-11T20:08:40.464Z,11.70
2022-10-11T20:11:42.956Z,11.63
2022-10-11T20:14:45.316Z,11.78
2022-10-11T20:17:48.214Z,11.83
2022-10-11T20:20:54.950Z,11.95
2022-10-11T20:24:01.981Z,11.77
2022-10-11T20:27:05.457Z,11.82
2022-10-11T20:30:08.260Z,11.77
2022-10-11T20:33:10.764Z,11.86
2022-10-11T20:36:19.606Z,11.94
2022-10-11T20:39:22.057Z,11.94
2022-10-11T20:42:28.869Z,11.80
2022-10-11T20:45:32.165Z,11.82
2022-10-11T20:48:35.595Z,11.67
2022-10-11T20:51:39.752Z,11.71
2022-10-11T20:54:42.074Z,11.60
2022-10-11T20:57:44.458Z,11.71
2022-10-11T21:00:47.797Z,11.72
2022-10-11T21:03:50.456Z,11.72
2022-10-11T21:06:52.779Z,11.65
2022-10-11T21:09:55.211Z,11.63
2022-10-11T21:12:58.179Z,11.68
2022-10-11T21:16:06.614Z,11.45
2022-10-11T21:19:12.777Z,11.27
2022-10-11T21:22:15.147Z,11.23
2022-10-11T21:25:17.553Z,10.97
2022-10-11T21:28:19.949Z,11.15
2022-10-11T21:31:23.217Z,11.12
2022-10-11T21:34:25.637Z,11.08
2022-10-11T21:37:28.037Z,11.14
2022-10-11T21:40:30.427Z,10.96
2022-10-11T21:43:34.086Z,10.99
2022-10-11T21:47:01.728Z,10.90
2022-10-11T21:49:58.851Z,10.82
2022-10-11T21:53:01.353Z,10.89
2022-10-11T21:56:03.925Z,10.88
2022-10-11T21:59:11.245Z,10.86
2022-10-11T22:02:14.918Z,10.76
2022-10-11T22:05:17.281Z,10.53
2022-10-11T22:08:19.718Z,10.41
2022-10-11T22:11:22.077Z,10.21
2022-10-11T22:14:24.499Z,10.37
2022-10-11T22:17:26.888Z,10.22
2022-10-11T22:20:32.356Z,10.25
2022-10-11T22:23:34.854Z,10.02
2022-10-11T22:26:37.224Z,10.18
2022-10-11T22:29:39.593Z,10.22
2022-10-11T22:32:41.992Z,10.17
2022-10-11T22:35:44.312Z,10.29
2022-10-11T22:38:47.149Z,10.46
2022-10-11T22:41:49.506Z,10.71
2022-10-11T22:44:51.883Z,11.01
2022-10-11T22:47:54.268Z,10.97
2022-10-11T22:50:56.721Z,11.31
2022-10-11T22:53:59.114Z,11.24
2022-10-11T22:57:01.503Z,11.28
2022-10-11T23:00:05.025Z,11.22
2022-10-11T23:03:07.495Z,11.17
2022-10-11T23:06:09.946Z,11.13
2022-10-11T23:09:12.341Z,11.09
2022-10-11T23:12:14.793Z,11.19
2022-10-11T23:15:17.356Z,11.49
2022-10-11T23:18:19.952Z,11.27
2022-10-11T23:21:22.374Z,11.42
2022-10-11T23:24:24.754Z,11.45
2022-10-11T23:27:29.119Z,11.52
2022-10-11T23:30:31.746Z,11.30
2022-10-11T23:33:34.492Z,11.15
2022-10-11T23:36:37.191Z,11.17
2022-10-11T23:39:39.855Z,11.03
2022-10-11T23:42:42.218Z,11.09
2022-10-11T23:45:45.127Z,11.20
2022-10-11T23:48:47.588Z,11.34
2022-10-11T23:51:50.025Z,11.30
2022-10-11T23:54:52.464Z,11.35
2022-10-11T23:57:54.838Z,11.43
